Embarrass, Wisconsin
Current Conditions -  °F | °C
As of 2:35 PM on Monday 26 Jan 2015 (Local Time) from KCLI Reporting Station
Light Snow Light Snow  
Wind Chill: -8°   Ceiling: 900
Heat Index: -4°   Visibility: 1.2mi
Dew Point: -6°   Wind: 7mph
Humidity: 86%   Direction: 160°SSE
Pressure: 29.81"   Gusts: NA
Location:  44.67°N, 88.71°W
Report Text: KCLI 262035Z AUTO 16006KT 1 1/4SM -SN BKN009 OVC016 M04/M06 A2981 RMK AO2
Loading
Personal Weather Stations






























Interactive Weather Map New forecast layout! Learn more

10-Day Weather Forecast

Advertisements
Track Severe Weather on mobile